BIENTÔT MET'MAP
version 2.0 !

Prévue avant fin octobre,
la nouvelle version sera
plus belle, plus complète
et hébergée sur un serveur
3 fois plus puissant...
et toujours gratuite !


Pas compatible ?
Essayez la version Mobile !

SE CONNECTER : | S'inscrire | Disclaimer | Découvrir Orbifly |
Code OACI :

TAF - EGXZ RAP Topcliffe - 10 Apr 2020 05:51 UTC - Data Source NOAA   


- Altitude de l'aérodrome : 92 ft
- Pas de NOTAMs connus.


EGXZ - RAP Topcliffe

Dernier METAR connu : 2015/08/11 07:50 EGXZ 110750Z 19003KT 9999 FEW012 SCT250 15/12 Q1019 BLU
Prévision TAF périmée.

Source NOAA


MET'MAP, la Météo Aéronautique d'un coup d'oeil ! - Copyright ORBIFLY Décembre 2007

Développement & Programmation : Alexandra Zaïnal
Co-Développement : Marc-Olivier Méhu
Soutien technique & logistique : Manuel Goepfert
Conception & Financement : Baudouin d'Aumeries